Time;durP1;ratioP1;P1;durP2;ratioP2;P2;SDS_P1;SDS_P2;PMS_P1;PMS_P2;Temp;Humidity;BMP_temperature;BMP_pressure;BME280_temperature;BME280_humidity;BME280_pressure;Samples;Min_cycle;Max_cycle;Signal;HPM_P1;HPM_P2
2023/01/17 00:02:18;;;;;;;6.05;1.00;;;;;;;9.94;71.32;92065.66;5038958;28;20060;-87
2023/01/17 00:10:26;;;;;;;3.00;1.30;;;;;;;11.86;62.57;92085.69;5039117;28;20032;-88
2023/01/17 00:12:59;;;;;;;2.10;0.65;;;;;;;10.72;76.51;92085.19;5038943;28;20021;-88
2023/01/17 00:15:26;;;;;;;8.88;1.40;;;;;;;11.02;68.92;92098.13;5022470;28;20440;-87
2023/01/17 00:17:52;;;;;;;4.75;1.00;;;;;;;10.54;75.46;92097.69;5039066;28;20076;-88
2023/01/17 00:26:03;;;;;;;6.20;0.93;;;;;;;10.73;67.55;92102.44;5038673;28;20355;-88
2023/01/17 01:35:50;;;;;;;4.28;0.75;;;;;;;11.62;53.59;92083.84;5028019;28;20123;-88
2023/01/17 01:38:17;;;;;;;3.22;0.90;;;;;;;11.44;54.44;92097.16;5037249;28;20033;-88
2023/01/17 01:40:49;;;;;;;6.18;1.00;;;;;;;11.36;55.44;92097.28;5037269;28;20031;-88
2023/01/17 01:43:17;;;;;;;6.45;0.88;;;;;;;11.35;56.73;92117.50;5012040;28;20478;-89
2023/01/17 01:45:51;;;;;;;5.60;1.10;;;;;;;10.84;57.44;92104.66;5033543;28;20029;-88
2023/01/17 01:48:33;;;;;;;8.20;1.20;;;;;;;10.85;62.27;92117.41;5033684;28;20018;-88
2023/01/17 01:51:03;;;;;;;8.07;1.15;;;;;;;10.58;57.74;92119.50;5017489;28;20053;-89
2023/01/17 01:53:31;;;;;;;9.75;1.08;;;;;;;10.71;58.10;92109.84;5017106;28;20030;-88
2023/01/17 01:55:57;;;;;;;4.18;1.00;;;;;;;10.62;57.95;92111.78;5017071;28;20034;-89
2023/01/17 01:58:24;;;;;;;4.28;0.90;;;;;;;11.13;56.55;92106.34;5017379;28;20354;-88
2023/01/17 02:00:50;;;;;;;5.00;0.73;;;;;;;10.95;57.62;92107.63;5033584;28;20049;-88
2023/01/17 02:03:22;;;;;;;5.07;0.77;;;;;;;10.84;58.89;92105.41;5016918;28;20443;-88
2023/01/17 02:05:47;;;;;;;3.20;0.63;;;;;;;10.03;61.64;92124.69;5033432;28;20053;-88
2023/01/17 02:08:18;;;;;;;2.00;0.50;;;;;;;10.64;61.48;92114.84;5033398;28;20104;-88
2023/01/17 02:10:43;;;;;;;0.70;0.30;;;;;;;9.89;64.11;92117.09;5033317;28;20463;-87
2023/01/17 02:13:10;;;;;;;1.98;0.63;;;;;;;10.63;61.62;92115.19;5033264;28;20056;-87
2023/01/17 02:15:54;;;;;;;2.70;0.60;;;;;;;10.65;62.14;92107.75;5033162;28;20033;-88
2023/01/17 02:18:25;;;;;;;3.35;0.50;;;;;;;11.21;59.25;92106.56;5017629;28;20033;-87
2023/01/17 02:21:29;;;;;;;4.30;1.08;;;;;;;11.07;59.28;92107.66;5017696;28;20034;-88
2023/01/17 02:23:57;;;;;;;8.13;0.60;;;;;;;10.20;63.14;92109.97;5015461;28;20481;-88
2023/01/17 02:26:53;;;;;;;2.70;0.68;;;;;;;10.95;63.63;92123.34;5016938;28;20056;-88
2023/01/17 02:29:31;;;;;;;2.67;0.85;;;;;;;10.89;62.22;92120.91;5017526;28;20036;-88
2023/01/17 02:32:08;;;;;;;3.47;0.80;;;;;;;10.29;63.29;92125.59;5017310;28;20087;-88
2023/01/17 02:35:03;;;;;;;1.20;0.70;;;;;;;9.97;64.92;92125.97;5016653;28;20043;-88
2023/01/17 02:38:10;;;;;;;3.10;0.68;;;;;;;11.28;60.96;92118.03;5032765;28;20029;-88
2023/01/17 02:40:40;;;;;;;1.35;0.50;;;;;;;11.30;60.58;92112.47;5000028;28;20037;-88
2023/01/17 02:43:09;;;;;;;3.17;0.60;;;;;;;11.35;61.78;92093.91;5016688;28;20120;-88
2023/01/17 02:45:35;;;;;;;11.25;0.75;;;;;;;11.08;60.82;92090.06;5032841;28;20034;-88
2023/01/17 02:48:00;;;;;;;3.88;0.88;;;;;;;11.04;60.36;92076.81;5032789;28;20056;-88
2023/01/17 02:50:33;;;;;;;4.70;0.60;;;;;;;11.02;60.87;92074.56;5017474;28;20439;-87
2023/01/17 02:53:11;;;;;;;4.68;0.90;;;;;;;11.08;59.27;92071.72;5016250;28;20052;-88
2023/01/17 02:56:27;;;;;;;7.45;0.65;;;;;;;10.62;65.16;92062.03;5016997;28;20037;-87
2023/01/17 02:59:18;;;;;;;0.90;0.57;;;;;;;11.25;59.75;92049.78;5015149;28;20038;-89
2023/01/17 03:02:09;;;;;;;3.63;0.50;;;;;;;11.24;58.60;92058.72;5015311;28;20041;-88
2023/01/17 03:04:47;;;;;;;2.05;0.60;;;;;;;10.57;62.66;92055.13;5032659;28;20029;-87
2023/01/17 03:07:16;;;;;;;9.65;1.30;;;;;;;10.58;63.04;92056.66;5015970;28;20048;-88
2023/01/17 03:09:44;;;;;;;5.95;1.05;;;;;;;10.74;61.05;92054.22;5032461;28;20026;-88
2023/01/17 03:12:10;;;;;;;5.93;1.05;;;;;;;10.38;62.52;92034.66;5016331;28;20033;-88
2023/01/17 03:14:36;;;;;;;5.32;0.95;;;;;;;10.40;62.61;92042.97;5035993;28;20056;-88
2023/01/17 03:17:01;;;;;;;5.55;0.73;;;;;;;9.87;64.13;92040.00;5039649;28;20064;-87
2023/01/17 03:19:27;;;;;;;2.47;0.90;;;;;;;10.00;61.50;92033.00;5023583;28;20060;-88
2023/01/17 03:21:52;;;;;;;5.18;0.73;;;;;;;10.16;60.41;92047.03;5023534;28;20033;-87
2023/01/17 03:24:18;;;;;;;3.58;0.55;;;;;;;10.75;59.03;92040.03;5023262;28;20059;-88
2023/01/17 03:26:43;;;;;;;6.45;1.23;;;;;;;10.84;58.68;92041.78;5039465;28;20557;-88
2023/01/17 03:29:10;;;;;;;5.72;0.98;;;;;;;10.84;58.41;92034.69;5039572;28;20025;-87
2023/01/17 03:31:35;;;;;;;5.43;0.80;;;;;;;10.63;58.01;92031.38;5056076;28;20031;-88
2023/01/17 03:34:01;;;;;;;6.20;1.08;;;;;;;11.02;57.29;92047.56;5039575;28;20025;-88
2023/01/17 03:36:26;;;;;;;8.27;0.93;;;;;;;11.12;56.99;92031.44;5039273;28;20033;-88
2023/01/17 03:38:52;;;;;;;12.32;1.35;;;;;;;9.86;65.32;92046.34;5048821;28;20033;-88
2023/01/17 03:41:17;;;;;;;3.08;0.75;;;;;;;9.95;61.02;92041.03;5023959;28;20030;-88
2023/01/17 03:43:43;;;;;;;7.22;0.70;;;;;;;10.39;59.83;92032.81;5023419;28;20428;-88
2023/01/17 03:46:18;;;;;;;13.20;1.00;;;;;;;10.78;59.83;92015.03;5024054;28;20061;-87
2023/01/17 03:48:44;;;;;;;5.70;0.88;;;;;;;10.54;59.25;92013.91;5035504;28;20076;-88
2023/01/17 03:51:09;;;;;;;7.97;0.68;;;;;;;9.93;62.86;92017.81;5039295;28;20033;-87
2023/01/17 03:53:34;;;;;;;4.85;0.80;;;;;;;10.56;60.02;92010.97;5011193;28;20338;-87
2023/01/17 03:56:00;;;;;;;3.60;0.82;;;;;;;10.69;57.74;92024.84;5040137;28;20034;-88
2023/01/17 03:58:25;;;;;;;4.55;0.55;;;;;;;9.44;61.67;92026.16;5037322;28;20033;-87
2023/01/17 04:00:50;;;;;;;4.45;0.65;;;;;;;10.09;61.07;92032.94;5055462;28;20057;-87
2023/01/17 04:03:16;;;;;;;5.70;0.73;;;;;;;9.99;63.51;92034.84;5038854;28;20041;-87
2023/01/17 04:05:41;;;;;;;6.25;0.60;;;;;;;10.14;63.03;92017.03;5055527;28;20075;-87
2023/01/17 04:08:07;;;;;;;1.80;0.50;;;;;;;8.94;68.77;91991.09;5038999;28;20172;-87
2023/01/17 04:10:32;;;;;;;2.35;0.60;;;;;;;9.74;67.84;91990.25;5055525;28;20036;-87
2023/01/17 04:13:01;;;;;;;2.80;0.52;;;;;;;10.76;64.59;92001.50;5055378;28;20029;-87
2023/01/17 04:15:27;;;;;;;2.67;0.60;;;;;;;10.97;62.28;91998.03;5038892;28;20327;-88
2023/01/17 04:17:53;;;;;;;4.43;0.68;;;;;;;10.57;63.11;91994.91;5038866;28;20041;-88
2023/01/17 04:20:34;;;;;;;5.00;1.02;;;;;;;10.53;64.55;91982.78;5055258;28;20350;-88
2023/01/17 04:23:00;;;;;;;4.55;0.90;;;;;;;10.78;64.46;91969.75;5055297;28;20346;-87
2023/01/17 04:25:26;;;;;;;4.88;0.77;;;;;;;10.79;64.49;91971.25;5055150;28;20025;-87
2023/01/17 04:27:52;;;;;;;4.90;0.88;;;;;;;11.46;62.46;91969.13;5038667;28;20032;-87
2023/01/17 04:30:17;;;;;;;6.30;1.42;;;;;;;11.25;62.79;91974.50;5038706;28;20144;-87
2023/01/17 04:32:43;;;;;;;9.18;0.50;;;;;;;11.12;62.53;91983.50;5054930;28;20060;-87
2023/01/17 04:35:08;;;;;;;4.50;0.70;;;;;;;11.20;61.88;91980.00;5054942;28;20103;-88
2023/01/17 04:37:35;;;;;;;2.90;0.82;;;;;;;11.38;62.40;91988.38;5039372;28;20029;-87
2023/01/17 04:40:00;;;;;;;2.33;0.55;;;;;;;10.11;69.32;91987.03;5038333;28;20029;-87
2023/01/17 04:42:25;;;;;;;8.13;1.33;;;;;;;10.35;66.70;91984.81;5055114;28;20087;-87
2023/01/17 04:44:51;;;;;;;6.72;0.80;;;;;;;10.95;63.81;91985.22;5054925;28;20034;-88
2023/01/17 04:47:16;;;;;;;4.30;0.90;;;;;;;10.35;65.08;91990.81;5038194;28;20025;-87
2023/01/17 04:49:41;;;;;;;3.88;0.93;;;;;;;10.86;63.88;91969.63;5054705;28;20021;-87
2023/01/17 04:52:07;;;;;;;9.50;0.93;;;;;;;11.10;62.48;91967.31;5054728;28;20147;-88
2023/01/17 04:54:32;;;;;;;5.22;0.93;;;;;;;10.84;60.90;91955.34;5054653;28;20029;-88
2023/01/17 04:56:58;;;;;;;5.65;0.95;;;;;;;10.89;63.09;91961.09;5037967;28;20029;-87
2023/01/17 04:59:23;;;;;;;3.92;0.50;;;;;;;11.15;60.11;91961.88;5038831;28;20029;-88
2023/01/17 05:01:49;;;;;;;7.57;0.95;;;;;;;11.32;60.33;91953.75;5054541;28;20335;-88
2023/01/17 05:04:14;;;;;;;4.68;0.93;;;;;;;11.59;59.30;91946.28;5037953;28;20025;-88
2023/01/17 05:06:40;;;;;;;6.22;0.63;;;;;;;10.52;61.39;91932.31;5054311;28;20026;-87
2023/01/17 05:09:05;;;;;;;4.45;0.77;;;;;;;10.41;64.41;91942.44;5054708;28;20080;-87
2023/01/17 05:11:31;;;;;;;1.20;0.50;;;;;;;10.42;64.41;91941.34;5054333;28;20028;-88
2023/01/17 05:13:57;;;;;;;1.38;0.30;;;;;;;10.43;63.75;91937.66;5037783;28;20025;-88
2023/01/17 05:16:22;;;;;;;2.45;0.50;;;;;;;10.19;65.53;91936.47;5054072;28;20036;-88
2023/01/17 05:18:51;;;;;;;5.72;0.60;;;;;;;10.32;66.87;91929.41;5037823;28;20339;-88
2023/01/17 05:21:16;;;;;;;6.32;0.75;;;;;;;9.79;69.56;91929.16;5042466;28;20336;-88
2023/01/17 05:23:42;;;;;;;2.40;0.57;;;;;;;10.53;67.32;91927.81;5025561;28;20036;-87
2023/01/17 05:26:07;;;;;;;3.10;0.50;;;;;;;10.11;67.65;91915.63;5020981;28;20052;-87
2023/01/17 05:28:33;;;;;;;5.10;0.65;;;;;;;10.09;68.05;91913.34;5020857;28;20324;-87
2023/01/17 05:30:58;;;;;;;3.40;0.55;;;;;;;11.38;63.65;91914.19;5021071;28;20029;-87
2023/01/17 05:33:24;;;;;;;5.32;0.60;;;;;;;11.29;63.89;91919.59;5037107;28;20415;-87
2023/01/17 05:35:49;;;;;;;2.05;0.50;;;;;;;11.62;62.49;91908.16;5020783;28;20060;-87
2023/01/17 05:38:15;;;;;;;3.17;0.70;;;;;;;11.96;59.66;91906.03;5036649;28;20029;-87
2023/01/17 05:40:40;;;;;;;2.03;0.57;;;;;;;11.60;61.64;91900.59;5037399;28;20025;-87
2023/01/17 05:43:06;;;;;;;5.80;0.82;;;;;;;11.73;60.68;91901.31;5037331;28;20032;-87
2023/01/17 05:45:32;;;;;;;3.63;0.45;;;;;;;11.93;60.92;91908.53;5020848;28;20031;-87
2023/01/17 05:47:58;;;;;;;6.88;0.80;;;;;;;11.72;61.39;91902.41;5020767;28;20025;-86
2023/01/17 05:50:27;;;;;;;2.22;0.57;;;;;;;11.85;61.60;91902.34;5036784;28;20037;-87
2023/01/17 05:52:57;;;;;;;3.72;0.65;;;;;;;11.97;60.73;91899.66;5036975;28;20026;-88
2023/01/17 05:55:24;;;;;;;1.20;0.57;;;;;;;11.98;61.72;91905.69;5036820;28;20074;-87
2023/01/17 05:57:49;;;;;;;3.05;0.60;;;;;;;11.96;60.45;91902.63;5037199;28;20072;-86
2023/01/17 06:00:16;;;;;;;4.60;1.05;;;;;;;11.35;63.98;91893.91;5034701;28;20049;-87
2023/01/17 06:02:42;;;;;;;4.50;0.80;;;;;;;11.63;63.20;91898.41;5016812;28;20030;-87
2023/01/17 06:05:13;;;;;;;2.22;0.70;;;;;;;12.16;61.89;91901.69;5030852;28;20030;-88
2023/01/17 06:07:41;;;;;;;4.45;1.15;;;;;;;11.91;60.69;91903.66;5036574;28;20087;-88
2023/01/17 06:10:06;;;;;;;10.75;4.35;;;;;;;11.79;60.32;91901.81;5053081;28;20033;-88
2023/01/17 06:12:32;;;;;;;4.55;1.02;;;;;;;11.36;62.69;91892.81;5037913;28;20029;-87
2023/01/17 06:14:57;;;;;;;5.90;0.75;;;;;;;11.68;60.95;91888.44;5053105;28;20034;-87
2023/01/17 06:17:22;;;;;;;3.65;0.50;;;;;;;12.04;60.63;91883.38;5037538;28;20090;-87
2023/01/17 06:19:48;;;;;;;61.60;27.20;;;;;;;12.21;60.08;91884.91;5036886;28;20033;-87
2023/01/17 06:22:13;;;;;;;30.52;11.60;;;;;;;11.88;61.40;91884.09;5037442;28;20033;-87
2023/01/17 06:24:39;;;;;;;4.18;1.33;;;;;;;11.86;61.17;91904.66;5036384;28;20170;-88
2023/01/17 06:27:04;;;;;;;4.90;0.95;;;;;;;11.71;61.58;91890.38;5036442;28;20366;-87
2023/01/17 06:29:30;;;;;;;4.85;0.80;;;;;;;11.65;64.00;91878.63;5036276;28;20363;-87
2023/01/17 06:31:55;;;;;;;9.80;1.45;;;;;;;11.21;69.55;91875.94;5037061;28;20044;-87
2023/01/17 06:34:21;;;;;;;3.15;0.68;;;;;;;11.30;67.39;91877.31;5036388;28;20435;-87
2023/01/17 06:36:46;;;;;;;4.57;0.70;;;;;;;11.10;70.20;91863.28;5052545;28;20037;-86
2023/01/17 06:39:12;;;;;;;6.78;0.90;;;;;;;11.15;69.68;91863.03;5052482;28;20033;-87
2023/01/17 06:41:37;;;;;;;4.40;1.30;;;;;;;11.63;67.22;91859.06;5036266;28;20029;-87
2023/01/17 06:44:03;;;;;;;2.60;0.85;;;;;;;11.92;66.27;91867.66;5019874;28;20029;-87
2023/01/17 06:46:28;;;;;;;2.45;1.00;;;;;;;11.99;65.29;91865.22;5052529;28;20030;-87
2023/01/17 06:48:54;;;;;;;6.53;1.48;;;;;;;11.56;66.18;91857.78;5052138;28;20029;-87
2023/01/17 06:51:19;;;;;;;2.65;1.10;;;;;;;11.32;70.95;91858.63;5052398;28;20029;-87
2023/01/17 06:53:47;;;;;;;4.65;0.85;;;;;;;11.09;72.96;91856.53;5037177;28;20036;-87
2023/01/17 06:56:12;;;;;;;2.55;0.73;;;;;;;11.41;70.73;91866.38;5035886;28;20037;-87
2023/01/17 06:58:38;;;;;;;6.13;0.98;;;;;;;11.35;67.46;91860.59;5035679;28;20091;-87
2023/01/17 07:01:11;;;;;;;3.35;0.82;;;;;;;11.94;67.53;91858.38;5052440;28;20030;-87
2023/01/17 07:03:37;;;;;;;78.78;42.78;;;;;;;11.56;67.78;91859.63;5035470;28;20040;-87
2023/01/17 07:06:03;;;;;;;31.02;17.17;;;;;;;11.78;66.65;91855.72;5035682;28;20030;-87
2023/01/17 07:08:30;;;;;;;21.60;7.47;;;;;;;11.84;68.05;91858.84;5035767;28;20040;-87
2023/01/17 07:11:00;;;;;;;14.70;7.25;;;;;;;12.21;66.48;91856.03;5052348;28;20034;-87
2023/01/17 07:13:26;;;;;;;10.43;4.88;;;;;;;12.15;66.46;91845.03;5035678;28;20411;-87
2023/01/17 07:15:51;;;;;;;12.48;5.38;;;;;;;11.87;67.14;91842.44;5035617;28;20119;-87
2023/01/17 07:18:22;;;;;;;7.30;2.20;;;;;;;11.49;70.96;91823.50;5035809;28;20029;-87
2023/01/17 07:20:51;;;;;;;4.22;1.30;;;;;;;11.76;74.71;91813.31;5051684;28;20049;-88
2023/01/17 07:23:17;;;;;;;26.50;2.35;;;;;;;11.65;72.95;91792.06;5052150;28;20128;-87
2023/01/17 07:25:43;;;;;;;3.42;1.15;;;;;;;11.93;71.33;91796.50;5036665;28;20494;-87
2023/01/17 07:28:08;;;;;;;3.70;1.40;;;;;;;12.01;68.56;91806.06;5051900;28;20108;-87
2023/01/17 07:30:34;;;;;;;7.07;1.08;;;;;;;10.91;78.17;91821.22;5052186;28;20455;-87
2023/01/17 07:33:00;;;;;;;3.97;0.88;;;;;;;11.81;74.58;91807.06;5035790;28;20037;-87
2023/01/17 07:35:26;;;;;;;4.57;0.70;;;;;;;11.80;72.61;91818.66;5051882;28;20048;-87
2023/01/17 07:37:52;;;;;;;4.18;0.90;;;;;;;11.60;75.13;91805.41;5019138;28;20029;-87
2023/01/17 07:40:18;;;;;;;6.72;1.15;;;;;;;11.38;78.30;91801.47;5035636;28;20440;-87
2023/01/17 07:42:45;;;;;;;3.13;0.57;;;;;;;11.66;78.34;91790.97;5035480;28;20079;-87
2023/01/17 07:45:11;;;;;;;3.58;0.90;;;;;;;11.60;77.11;91779.19;5035063;28;20033;-87
2023/01/17 07:47:37;;;;;;;6.18;1.15;;;;;;;11.38;80.41;91770.03;5036449;28;20032;-88
2023/01/17 07:50:03;;;;;;;5.18;0.80;;;;;;;11.47;80.95;91754.91;5052006;28;20033;-87
2023/01/17 07:52:29;;;;;;;8.43;1.20;;;;;;;11.57;78.67;91746.56;5036777;28;20025;-87
2023/01/17 07:54:54;;;;;;;5.63;0.90;;;;;;;11.70;79.71;91755.09;5052002;28;20036;-87
2023/01/17 07:57:19;;;;;;;13.93;3.75;;;;;;;12.13;77.58;91746.72;5051586;28;20037;-87
2023/01/17 07:59:45;;;;;;;22.20;5.50;;;;;;;11.84;74.95;91735.56;5051855;28;20025;-87
2023/01/17 08:02:21;;;;;;;9.57;1.83;;;;;;;12.40;74.82;91721.44;5054940;28;20034;-87
2023/01/17 08:04:47;;;;;;;3.55;1.23;;;;;;;12.21;75.09;91730.06;5055362;28;20078;-87
2023/01/17 08:07:13;;;;;;;7.15;3.08;;;;;;;12.36;74.36;91723.22;5039143;28;20065;-88
2023/01/17 08:09:43;;;;;;;1.08;0.65;;;;;;;12.95;73.65;91733.03;5038846;28;20102;-87
2023/01/17 08:12:09;;;;;;;6.63;1.02;;;;;;;12.13;80.61;91726.50;5055215;28;20030;-87
2023/01/17 08:14:35;;;;;;;5.38;0.90;;;;;;;12.77;74.65;91722.16;5038727;28;20025;-87
2023/01/17 08:17:10;;;;;;;3.20;1.23;;;;;;;13.22;70.68;91714.75;5038590;28;20446;-87
2023/01/17 08:19:35;;;;;;;4.53;0.95;;;;;;;13.19;69.76;91718.06;5022681;28;20038;-87
2023/01/17 08:22:01;;;;;;;10.43;3.38;;;;;;;13.12;69.41;91701.06;5038652;28;20430;-88
2023/01/17 08:24:26;;;;;;;4.13;1.88;;;;;;;13.49;69.77;91697.19;5055258;28;20041;-88
2023/01/17 08:26:54;;;;;;;18.10;7.82;;;;;;;13.76;69.02;91691.22;5038575;28;20434;-87
2023/01/17 08:29:20;;;;;;;30.95;12.88;;;;;;;13.68;68.25;91690.34;5055136;28;20075;-87
2023/01/17 08:31:45;;;;;;;5.32;1.50;;;;;;;13.33;72.12;91689.38;5039579;28;20029;-88
2023/01/17 08:34:12;;;;;;;4.70;1.30;;;;;;;13.39;74.48;91677.47;5055217;28;20082;-87
2023/01/17 08:36:38;;;;;;;14.75;5.47;;;;;;;13.88;69.95;91677.88;5039330;28;20078;-87
2023/01/17 08:39:04;;;;;;;4.07;1.15;;;;;;;13.77;67.41;91669.81;5055099;28;20022;-87
2023/01/17 08:41:31;;;;;;;8.35;2.67;;;;;;;13.57;69.82;91679.66;5055009;28;20037;-88
2023/01/17 08:43:57;;;;;;;44.85;22.63;;;;;;;13.67;71.25;91673.81;5054747;28;20025;-87
2023/01/17 08:46:23;;;;;;;6.82;2.80;;;;;;;13.27;72.34;91680.28;5054751;28;20120;-88
2023/01/17 08:48:52;;;;;;;6.97;2.75;;;;;;;13.97;69.06;91675.00;5038422;28;20029;-88
2023/01/17 08:51:18;;;;;;;3.20;1.52;;;;;;;13.91;67.74;91671.91;5038457;28;20029;-87
2023/01/17 08:53:43;;;;;;;9.05;2.40;;;;;;;13.86;67.62;91656.41;5038266;28;20343;-87
2023/01/17 08:56:08;;;;;;;41.15;4.07;;;;;;;13.15;67.81;91653.03;5039018;28;20041;-88
2023/01/17 08:58:34;;;;;;;218.70;11.50;;;;;;;12.45;74.08;91644.25;5038184;28;20433;-88
2023/01/17 09:01:01;;;;;;;9.95;3.58;;;;;;;13.12;73.44;91645.06;5038080;28;20035;-87
2023/01/17 09:03:27;;;;;;;163.20;11.20;;;;;;;13.27;70.37;91644.25;5037975;28;20025;-87
2023/01/17 09:06:22;;;;;;;11.80;4.80;;;;;;;13.83;67.85;91628.94;5037968;28;20032;-87
2023/01/17 09:08:50;;;;;;;128.52;7.68;;;;;;;13.57;66.71;91624.41;5034473;28;20045;-87
2023/01/17 09:11:16;;;;;;;66.07;6.85;;;;;;;13.41;69.91;91616.63;5037973;28;20029;-87
2023/01/17 09:13:42;;;;;;;10.57;4.93;;;;;;;14.19;67.26;91609.47;5053356;28;20033;-87
2023/01/17 09:16:08;;;;;;;306.92;16.13;;;;;;;13.95;68.05;91616.69;5054115;28;20493;-87
2023/01/17 09:18:34;;;;;;;12.65;5.60;;;;;;;14.35;66.03;91612.69;5037838;28;20421;-87
2023/01/17 09:21:12;;;;;;;19.23;5.53;;;;;;;14.27;64.68;91614.47;5037757;28;20126;-87
2023/01/17 09:23:37;;;;;;;302.02;15.07;;;;;;;13.73;64.95;91603.25;5053869;28;20025;-88
2023/01/17 09:26:02;;;;;;;377.67;19.27;;;;;;;13.24;70.08;91602.09;5037454;28;20021;-87
2023/01/17 09:28:28;;;;;;;496.58;26.13;;;;;;;13.03;73.03;91613.03;5038658;28;20029;-87
2023/01/17 09:30:53;;;;;;;403.17;21.05;;;;;;;12.49;78.07;91624.09;5037622;28;20029;-88
2023/01/17 09:33:19;;;;;;;151.80;10.05;;;;;;;13.11;70.57;91636.44;5038446;28;20029;-87
2023/01/17 09:35:45;;;;;;;11.40;5.22;;;;;;;13.37;69.48;91650.00;5037276;28;20378;-87
2023/01/17 09:38:11;;;;;;;45.03;19.02;;;;;;;13.47;67.77;91652.09;5053594;28;20435;-87
2023/01/17 09:40:41;;;;;;;16.50;8.27;;;;;;;13.05;69.95;91639.72;5037200;28;20124;-87
2023/01/17 09:43:17;;;;;;;208.02;20.55;;;;;;;12.37;74.22;91645.22;5053775;28;20052;-87
2023/01/17 09:45:42;;;;;;;59.25;23.40;;;;;;;13.03;70.68;91639.31;5037075;28;20017;-87
2023/01/17 09:48:13;;;;;;;310.75;30.83;;;;;;;13.11;70.17;91638.31;5038126;28;20025;-88
2023/01/17 09:51:00;;;;;;;33.33;10.70;;;;;;;13.65;71.39;91631.31;5037161;28;20069;-87
2023/01/17 09:53:28;;;;;;;204.40;23.50;;;;;;;13.66;68.20;91630.22;5036981;28;20060;-87
2023/01/17 09:56:03;;;;;;;484.98;33.67;;;;;;;12.96;73.57;91624.91;5020441;28;20131;-87
2023/01/17 09:58:46;;;;;;;121.30;11.85;;;;;;;13.53;68.68;91639.41;5037083;28;20079;-87
2023/01/17 10:01:20;;;;;;;37.60;10.38;;;;;;;14.21;67.63;91625.66;5037646;28;20033;-87
2023/01/17 10:04:12;;;;;;;32.45;9.45;;;;;;;13.52;66.75;91625.47;5036704;28;20034;-88
2023/01/17 10:06:49;;;;;;;23.10;10.23;;;;;;;14.12;68.70;91625.94;5036264;28;20026;-87
2023/01/17 10:09:45;;;;;;;21.63;9.60;;;;;;;14.69;66.92;91620.59;5037503;28;20446;-87
2023/01/17 10:12:20;;;;;;;35.00;13.15;;;;;;;15.11;65.29;91610.09;5037473;28;20072;-88
2023/01/17 10:14:50;;;;;;;66.05;14.65;;;;;;;14.81;63.95;91603.03;5037504;28;20040;-87
2023/01/17 10:17:20;;;;;;;25.75;11.85;;;;;;;15.11;62.89;91600.31;5036356;28;20029;-87
2023/01/17 10:19:55;;;;;;;25.23;11.10;;;;;;;14.72;62.30;91598.06;5036761;28;20029;-88
2023/01/17 10:22:55;;;;;;;22.92;11.02;;;;;;;15.30;61.97;91593.31;5036405;28;20155;-88
2023/01/17 10:25:35;;;;;;;19.63;9.40;;;;;;;15.93;59.39;91574.16;5020055;28;20414;-87
2023/01/17 10:28:13;;;;;;;23.05;10.50;;;;;;;14.54;62.53;91584.66;5052906;28;20460;-88
2023/01/17 10:30:47;;;;;;;24.48;10.70;;;;;;;14.89;65.07;91580.13;5036470;28;20029;-87
2023/01/17 10:33:23;;;;;;;22.58;10.57;;;;;;;14.96;65.48;91585.50;5036415;28;20033;-88
2023/01/17 10:35:56;;;;;;;25.02;11.43;;;;;;;14.97;65.25;91581.75;5036217;28;20040;-88
2023/01/17 10:38:31;;;;;;;20.60;9.60;;;;;;;14.42;69.38;91583.03;5036153;28;20144;-88
2023/01/17 10:41:01;;;;;;;19.40;8.07;;;;;;;14.94;67.27;91577.94;5037412;28;20360;-88
2023/01/17 10:43:38;;;;;;;24.48;10.95;;;;;;;14.91;65.13;91577.91;5052736;28;20041;-88
2023/01/17 10:46:04;;;;;;;25.63;12.73;;;;;;;14.90;63.65;91577.16;5036286;28;20021;-87
2023/01/17 10:48:42;;;;;;;44.88;15.40;;;;;;;14.91;63.97;91559.44;5035946;28;20029;-87
2023/01/17 10:51:13;;;;;;;38.53;13.88;;;;;;;14.89;63.14;91559.81;5019706;28;20030;-88
2023/01/17 10:54:05;;;;;;;149.02;17.40;;;;;;;14.37;65.09;91557.03;5035940;28;20030;-87
2023/01/17 10:56:31;;;;;;;30.73;14.32;;;;;;;13.98;65.77;91568.59;5028086;28;20132;-88
2023/01/17 10:59:07;;;;;;;28.90;13.65;;;;;;;14.22;65.43;91570.03;5019653;28;20099;-87
2023/01/17 11:01:32;;;;;;;32.10;14.18;;;;;;;13.55;69.17;91564.25;5036646;28;20453;-88
2023/01/17 11:03:58;;;;;;;84.80;15.98;;;;;;;13.49;67.55;91564.94;5035866;28;20029;-88
2023/01/17 11:06:24;;;;;;;42.78;14.07;;;;;;;13.76;66.10;91565.69;5035753;28;20048;-88
2023/01/17 11:08:53;;;;;;;45.80;15.85;;;;;;;13.45;65.09;91561.50;5035986;28;20458;-88
2023/01/17 11:11:21;;;;;;;44.80;15.52;;;;;;;13.23;67.75;91555.91;5036711;28;20324;-88
2023/01/17 11:13:47;;;;;;;48.42;17.02;;;;;;;12.71;72.36;91549.06;5035582;28;20035;-87
2023/01/17 11:16:23;;;;;;;36.58;15.43;;;;;;;13.24;68.55;91541.63;5035339;28;20445;-88
2023/01/17 11:19:31;;;;;;;34.53;16.15;;;;;;;12.94;71.11;91537.06;5036867;28;20419;-87
2023/01/17 11:22:05;;;;;;;41.10;16.00;;;;;;;12.61;75.16;91531.25;5035812;28;20319;-87
2023/01/17 11:24:48;;;;;;;42.80;15.63;;;;;;;11.94;78.07;91529.63;5035637;28;20056;-87
2023/01/17 11:27:29;;;;;;;34.10;14.40;;;;;;;13.17;72.18;91533.63;5052058;28;20025;-87
2023/01/17 11:30:15;;;;;;;113.03;16.70;;;;;;;13.26;68.04;91531.53;5035839;28;20025;-87
2023/01/17 11:32:57;;;;;;;120.07;16.00;;;;;;;13.29;69.47;91526.31;5034893;28;20034;-87
2023/01/17 11:35:30;;;;;;;162.73;19.13;;;;;;;10.74;86.67;91522.59;5036271;28;20033;-87
2023/01/17 11:37:57;;;;;;;;;;;;;;;12.11;83.98;91520.63;5039710;28;20037;-87
2023/01/17 11:40:25;;;;;;;461.20;43.88;;;;;;;11.89;82.69;91520.16;5039249;28;20260;-87
2023/01/17 11:43:04;;;;;;;73.30;18.77;;;;;;;12.68;74.98;91528.00;5039679;28;20029;-87
2023/01/17 11:45:32;;;;;;;305.88;27.02;;;;;;;11.90;79.13;91520.94;5055523;28;20222;-87
2023/01/17 11:48:06;;;;;;;59.50;18.52;;;;;;;11.69;81.53;91533.28;5019234;28;20027;-87
2023/01/17 11:50:32;;;;;;;45.00;16.83;;;;;;;11.27;82.79;91526.00;5037431;28;20037;-87
2023/01/17 11:53:14;;;;;;;78.28;19.52;;;;;;;11.79;79.24;91516.22;5040422;28;20038;-87
2023/01/17 11:55:39;;;;;;;58.60;19.67;;;;;;;10.83;83.89;91501.47;5039918;28;20055;-87
2023/01/17 11:58:05;;;;;;;84.55;43.08;;;;;;;11.90;79.89;91499.94;5055561;28;20115;-87
2023/01/17 12:00:37;;;;;;;56.15;20.17;;;;;;;11.77;80.12;91504.56;5038887;28;20033;-87
2023/01/17 12:03:17;;;;;;;61.75;19.33;;;;;;;11.19;82.67;91512.00;5039442;28;20450;-88
2023/01/17 12:05:52;;;;;;;43.80;16.60;;;;;;;11.10;77.64;91504.31;5039931;28;20320;-89
2023/01/17 12:08:20;;;;;;;45.47;19.10;;;;;;;11.15;82.42;91498.81;5022766;28;20102;-88
2023/01/17 12:10:46;;;;;;;37.45;14.68;;;;;;;10.79;79.21;91503.25;5038799;28;20041;-88
2023/01/17 12:19:21;;;;;;;44.50;14.13;;;;;;;10.97;82.77;91489.78;5032083;28;20040;-89
2023/01/17 12:21:57;;;;;;;60.35;16.00;;;;;;;10.16;84.26;91489.72;5037462;28;20386;-88
2023/01/17 12:24:57;;;;;;;58.17;16.58;;;;;;;10.57;85.62;91483.66;5022912;28;20088;-87
2023/01/17 12:27:37;;;;;;;41.97;15.88;;;;;;;10.49;85.17;91453.16;5019862;28;20351;-88
2023/01/17 12:30:34;;;;;;;34.90;14.82;;;;;;;10.95;80.31;91455.31;5019749;28;20034;-88
2023/01/17 12:33:20;;;;;;;43.60;16.20;;;;;;;10.43;84.69;91466.50;5026217;28;20082;-88
2023/01/17 12:35:55;;;;;;;45.13;15.98;;;;;;;10.77;82.58;91465.38;5038431;28;20032;-88
2023/01/17 12:38:26;;;;;;;54.45;18.15;;;;;;;10.47;84.39;91474.41;5055074;28;20040;-88
2023/01/17 12:41:06;;;;;;;43.05;16.52;;;;;;;11.03;76.24;91475.31;5038460;28;20026;-88
2023/01/17 12:43:39;;;;;;;48.67;16.65;;;;;;;10.49;84.11;91477.47;5038303;28;20151;-88
2023/01/17 12:46:13;;;;;;;92.47;18.42;;;;;;;9.67;91.80;91454.09;5038211;28;20028;-88
2023/01/17 12:48:38;;;;;;;89.50;17.90;;;;;;;9.14;96.51;91465.31;5053520;28;20461;-88
2023/01/17 12:51:26;;;;;;;112.20;19.92;;;;;;;9.90;92.30;91470.00;5038159;28;20061;-88
2023/01/17 12:54:03;;;;;;;130.95;20.27;;;;;;;9.04;100.00;91478.84;5038318;28;20033;-88
2023/01/17 12:56:33;;;;;;;85.93;20.17;;;;;;;9.44;98.55;91462.44;5021803;28;20382;-88
2023/01/17 12:59:31;;;;;;;95.90;18.60;;;;;;;10.29;91.52;91456.41;5038090;28;20116;-87
2023/01/17 13:01:59;;;;;;;74.85;17.95;;;;;;;9.58;95.72;91443.78;5021745;28;20036;-88
2023/01/17 13:04:41;;;;;;;84.00;18.65;;;;;;;9.60;90.80;91438.97;5037952;28;20112;-88
2023/01/17 13:07:39;;;;;;;108.70;20.70;;;;;;;9.68;88.01;91442.53;5021580;28;20087;-88